Terminal Aerodrome Forecast
Issued by NWS

Current Version | Previous Version | Graphics & Text | Print | Product List | Glossary On
Versions: 1 2 3 4 5 6 7 8 9 10 11 12 13 14 15 16 17 18 19 20 21 22 23 24 25 26 27
000
FTUS41 KPBZ 252300
TAFHLG
TAF
KHLG 252322Z 2600/2624 25008KT P6SM SCT050
     FM260600 24006KT P6SM BKN025
     FM260900 VRB04KT 3SM -SHRA BR OVC012
     FM261700 32008KT 2SM -SHRA OVC008
     FM262100 33008KT P6SM BKN015=

USA.gov is the U.S. government's official web portal to all federal, state and local government web resources and services.